createdAt,value
2022-10-23T00:00:16.876Z,9.60
2022-10-23T00:02:46.584Z,9.60
2022-10-23T00:06:23.148Z,9.60
2022-10-23T00:09:00.427Z,9.60
2022-10-23T00:11:30.973Z,9.60
2022-10-23T00:14:03.053Z,9.60
2022-10-23T00:16:30.827Z,9.60
2022-10-23T00:18:59.158Z,9.50
2022-10-23T00:21:28.317Z,9.50
2022-10-23T00:23:59.333Z,9.30
2022-10-23T00:26:28.648Z,9.20
2022-10-23T00:29:06.048Z,9.20
2022-10-23T00:31:35.009Z,9.30
2022-10-23T00:34:04.331Z,9.30
2022-10-23T00:36:34.337Z,9.30
2022-10-23T00:39:11.508Z,9.30
2022-10-23T00:41:41.099Z,9.30
2022-10-23T00:44:23.509Z,9.30
2022-10-23T00:46:54.002Z,9.20
2022-10-23T00:49:33.539Z,9.10
2022-10-23T00:52:19.305Z,9.10
2022-10-23T00:54:47.814Z,9.10
2022-10-23T00:57:17.812Z,9.10
2022-10-23T00:59:46.708Z,9.00
2022-10-23T01:02:23.561Z,9.10
2022-10-23T01:04:53.229Z,9.10
2022-10-23T01:07:53.588Z,9.20
2022-10-23T01:10:43.863Z,9.20
2022-10-23T01:13:39.608Z,9.20
2022-10-23T01:16:52.183Z,9.20
2022-10-23T01:20:16.748Z,9.20
2022-10-23T01:23:17.038Z,9.10
2022-10-23T01:26:11.461Z,9.10
2022-10-23T01:29:07.669Z,9.10
2022-10-23T01:31:50.471Z,9.00
2022-10-23T01:34:23.607Z,9.00
2022-10-23T01:36:52.233Z,9.00
2022-10-23T01:39:27.712Z,9.00
2022-10-23T01:42:17.549Z,9.10
2022-10-23T01:44:54.235Z,9.00
2022-10-23T01:47:33.180Z,9.00
2022-10-23T01:50:02.378Z,8.90
2022-10-23T01:52:29.668Z,8.80
2022-10-23T01:55:00.389Z,8.80
2022-10-23T01:57:31.587Z,8.70
2022-10-23T02:00:12.594Z,8.60
2022-10-23T02:02:42.368Z,8.70
2022-10-23T02:05:17.833Z,8.70
2022-10-23T02:07:45.581Z,8.70
2022-10-23T02:10:14.689Z,8.80
2022-10-23T02:12:57.060Z,8.90
2022-10-23T02:15:38.788Z,8.90
2022-10-23T02:18:23.913Z,8.90
2022-10-23T02:21:17.873Z,8.90
2022-10-23T02:24:01.617Z,8.80
2022-10-23T02:26:43.923Z,8.80
2022-10-23T02:29:25.693Z,8.70
2022-10-23T02:31:52.794Z,8.60
2022-10-23T02:34:20.188Z,8.60
2022-10-23T02:36:47.428Z,8.60
2022-10-23T02:39:14.563Z,8.50
2022-10-23T02:41:50.949Z,8.50
2022-10-23T02:44:26.578Z,8.40
2022-10-23T02:46:56.793Z,8.40
2022-10-23T02:49:42.369Z,8.50
2022-10-23T02:52:19.691Z,8.30
2022-10-23T02:54:54.909Z,8.20
2022-10-23T02:57:21.968Z,8.10
2022-10-23T03:00:03.895Z,8.00
2022-10-23T03:02:40.185Z,7.90
2022-10-23T03:05:12.500Z,8.00
2022-10-23T03:07:41.322Z,8.10
2022-10-23T03:10:09.819Z,8.10
2022-10-23T03:12:37.495Z,8.10
2022-10-23T03:15:06.059Z,8.10
2022-10-23T03:17:33.232Z,8.10
2022-10-23T03:20:00.411Z,8.10
2022-10-23T03:22:27.495Z,8.10
2022-10-23T03:24:54.569Z,8.10
2022-10-23T03:27:21.741Z,8.10
2022-10-23T03:29:49.014Z,8.00
2022-10-23T03:32:16.148Z,8.00
2022-10-23T03:34:43.714Z,7.90
2022-10-23T03:37:10.810Z,7.70
2022-10-23T03:39:37.887Z,7.60
2022-10-23T03:42:05.130Z,7.60
2022-10-23T03:44:32.423Z,7.60
2022-10-23T03:46:59.551Z,7.50
2022-10-23T03:49:26.669Z,7.40
2022-10-23T03:51:53.729Z,7.40
2022-10-23T03:54:23.753Z,7.50
2022-10-23T03:56:53.678Z,7.40
2022-10-23T03:59:23.794Z,7.40
2022-10-23T04:01:50.980Z,7.40
2022-10-23T04:04:18.500Z,7.70
2022-10-23T04:06:45.733Z,7.80
2022-10-23T04:11:40.172Z,7.90
2022-10-23T04:14:07.203Z,7.80
2022-10-23T04:16:34.314Z,7.90
2022-10-23T04:19:01.365Z,8.00
2022-10-23T04:21:28.455Z,8.10
2022-10-23T04:23:55.464Z,8.10
2022-10-23T04:26:22.615Z,8.10
2022-10-23T04:28:49.665Z,8.20
2022-10-23T04:31:16.730Z,8.20
2022-10-23T04:33:44.104Z,8.10
2022-10-23T04:36:11.197Z,8.10
2022-10-23T04:38:38.236Z,8.20
2022-10-23T04:41:05.421Z,8.20
2022-10-23T04:43:32.555Z,8.20
2022-10-23T04:46:00.790Z,8.20
2022-10-23T04:48:29.192Z,8.10
2022-10-23T04:51:02.220Z,8.00
2022-10-23T04:53:30.329Z,8.00
2022-10-23T04:55:59.039Z,8.00
2022-10-23T04:58:27.732Z,8.10
2022-10-23T05:00:55.392Z,8.10
2022-10-23T05:03:23.769Z,8.10
2022-10-23T05:05:54.626Z,8.10
2022-10-23T05:08:23.335Z,8.10
2022-10-23T05:10:51.175Z,8.10
2022-10-23T05:13:20.042Z,8.10
2022-10-23T05:15:51.928Z,8.10
2022-10-23T05:18:24.614Z,8.10
2022-10-23T05:20:57.061Z,8.10
2022-10-23T05:23:26.775Z,8.10
2022-10-23T05:25:53.834Z,8.10
2022-10-23T05:28:20.904Z,8.10
2022-10-23T05:30:48.970Z,8.00
2022-10-23T05:33:16.184Z,8.00
2022-10-23T05:35:45.864Z,7.90
2022-10-23T05:38:14.794Z,7.90
2022-10-23T05:40:41.852Z,7.90
2022-10-23T05:43:08.939Z,7.90
2022-10-23T05:45:35.919Z,7.90
2022-10-23T05:48:10.902Z,7.90
2022-10-23T05:50:49.304Z,7.80
2022-10-23T05:53:16.484Z,7.80
2022-10-23T05:55:43.514Z,7.80
2022-10-23T05:58:10.595Z,7.70
2022-10-23T06:00:37.619Z,7.50
2022-10-23T06:03:04.704Z,7.40
2022-10-23T06:05:31.842Z,7.30
2022-10-23T06:08:00.365Z,7.30
2022-10-23T06:10:28.294Z,7.40
2022-10-23T06:12:55.339Z,7.50
2022-10-23T06:15:22.334Z,7.60
2022-10-23T06:17:49.415Z,7.70
2022-10-23T06:20:16.484Z,7.90
2022-10-23T06:22:43.597Z,8.10
2022-10-23T06:25:10.906Z,8.30
2022-10-23T06:27:37.952Z,8.40
2022-10-23T06:30:07.354Z,8.60
2022-10-23T06:32:34.304Z,8.70
2022-10-23T06:35:01.261Z,8.90
2022-10-23T06:37:28.340Z,8.90
2022-10-23T06:39:55.329Z,9.10
2022-10-23T06:42:22.455Z,9.20
2022-10-23T06:44:49.459Z,9.30
2022-10-23T06:49:44.784Z,9.50
2022-10-23T06:52:23.196Z,9.60
2022-10-23T06:54:58.954Z,9.80
2022-10-23T06:57:26.028Z,9.90
2022-10-23T06:59:53.044Z,9.80
2022-10-23T07:02:20.071Z,9.80
2022-10-23T07:04:47.104Z,9.60
2022-10-23T07:07:14.076Z,9.60
2022-10-23T07:09:41.607Z,9.60
2022-10-23T07:12:08.879Z,9.70
2022-10-23T07:14:35.884Z,9.80
2022-10-23T07:17:02.954Z,10.00
2022-10-23T07:19:29.875Z,10.30
2022-10-23T07:21:57.367Z,10.40
2022-10-23T07:24:24.564Z,10.50
2022-10-23T07:26:51.586Z,10.60
2022-10-23T07:29:18.603Z,10.70
2022-10-23T07:31:45.711Z,10.80
2022-10-23T07:34:12.957Z,11.00
2022-10-23T07:36:39.964Z,11.30
2022-10-23T07:39:07.041Z,11.50
2022-10-23T07:41:33.984Z,11.70
2022-10-23T07:44:00.960Z,11.70
2022-10-23T07:46:28.054Z,11.70
2022-10-23T07:48:55.279Z,11.50
2022-10-23T07:51:22.354Z,11.60
2022-10-23T07:53:49.336Z,11.60
2022-10-23T07:56:34.569Z,11.60
2022-10-23T07:59:01.619Z,11.80
2022-10-23T08:01:39.754Z,11.90
2022-10-23T08:04:17.384Z,11.90
2022-10-23T08:06:48.209Z,12.30
2022-10-23T08:09:18.694Z,12.60
2022-10-23T08:11:48.605Z,12.80
2022-10-23T08:14:18.510Z,13.00
2022-10-23T08:16:47.148Z,13.10
2022-10-23T08:19:16.345Z,13.20
2022-10-23T08:21:44.955Z,13.30
2022-10-23T08:24:14.696Z,13.30
2022-10-23T08:26:44.949Z,13.40
2022-10-23T08:29:15.304Z,13.50
2022-10-23T08:31:45.779Z,13.60
2022-10-23T08:34:16.779Z,13.40
2022-10-23T08:36:46.590Z,13.30
2022-10-23T08:39:13.543Z,13.30
2022-10-23T08:41:58.781Z,13.30
2022-10-23T08:45:01.305Z,13.30
2022-10-23T08:48:04.659Z,13.20
2022-10-23T08:50:57.874Z,13.10
2022-10-23T08:53:44.839Z,13.00
2022-10-23T08:56:38.404Z,13.00
2022-10-23T08:59:40.534Z,13.10
2022-10-23T09:02:08.567Z,13.20
2022-10-23T09:04:36.569Z,13.40
2022-10-23T09:07:46.053Z,13.50
2022-10-23T09:10:55.099Z,13.50
2022-10-23T09:13:59.769Z,13.60
2022-10-23T09:16:57.708Z,13.60
2022-10-23T09:19:31.655Z,13.70
2022-10-23T09:22:01.179Z,13.60
2022-10-23T09:24:35.199Z,13.70
2022-10-23T09:29:38.133Z,13.70
2022-10-23T09:32:07.694Z,13.80
2022-10-23T09:34:37.179Z,13.80
2022-10-23T09:37:33.094Z,13.80
2022-10-23T09:40:20.884Z,13.80
2022-10-23T09:43:10.274Z,13.80
2022-10-23T09:46:10.544Z,13.60
2022-10-23T09:48:38.819Z,13.60
2022-10-23T09:51:27.209Z,13.60
2022-10-23T09:53:57.891Z,13.70
2022-10-23T09:56:29.890Z,13.60
2022-10-23T09:59:14.734Z,13.70
2022-10-23T10:01:55.547Z,13.80
2022-10-23T10:04:41.828Z,13.80
2022-10-23T10:07:24.364Z,14.00
2022-10-23T10:09:55.347Z,14.10
2022-10-23T10:12:59.477Z,14.10
2022-10-23T10:15:38.634Z,14.10
2022-10-23T10:18:25.650Z,14.20
2022-10-23T10:21:37.730Z,14.20
2022-10-23T10:25:10.639Z,14.30
2022-10-23T10:28:13.404Z,14.30
2022-10-23T10:31:06.017Z,14.20
2022-10-23T10:33:50.864Z,14.40
2022-10-23T10:36:56.676Z,14.50
2022-10-23T10:40:07.880Z,14.60
2022-10-23T10:43:03.404Z,14.70
2022-10-23T10:45:47.145Z,14.90
2022-10-23T10:49:08.299Z,15.10
2022-10-23T10:51:47.153Z,15.20
2022-10-23T10:54:49.810Z,15.30
2022-10-23T10:58:00.122Z,15.50
2022-10-23T11:00:30.717Z,15.70
2022-10-23T11:03:47.205Z,15.80
2022-10-23T11:06:32.110Z,16.00
2022-10-23T11:09:27.421Z,16.10
2022-10-23T11:12:04.769Z,16.20
2022-10-23T11:14:39.310Z,16.30
2022-10-23T11:17:29.184Z,16.30
2022-10-23T11:20:24.369Z,16.40
2022-10-23T11:23:31.868Z,16.40
2022-10-23T11:26:35.674Z,16.40
2022-10-23T11:29:48.784Z,16.40
2022-10-23T11:32:49.796Z,16.50
2022-10-23T11:35:41.729Z,16.60
2022-10-23T11:38:34.079Z,16.70
2022-10-23T11:41:43.721Z,16.80
2022-10-23T11:47:46.344Z,16.80
2022-10-23T11:50:36.844Z,16.80
2022-10-23T11:53:17.945Z,16.80
2022-10-23T11:56:00.457Z,16.70
2022-10-23T11:58:49.644Z,16.80
2022-10-23T12:01:43.762Z,16.90
2022-10-23T12:04:17.857Z,16.90
2022-10-23T12:06:54.097Z,16.80
2022-10-23T12:09:35.554Z,16.90
2022-10-23T12:15:28.698Z,17.00
2022-10-23T12:18:15.966Z,17.00
2022-10-23T12:21:04.598Z,17.00
2022-10-23T12:24:47.395Z,17.20
2022-10-23T12:27:48.744Z,17.10
2022-10-23T12:30:48.778Z,14.60
2022-10-23T12:33:35.323Z,12.80
2022-10-23T12:36:24.642Z,12.30
2022-10-23T12:38:56.785Z,11.70
2022-10-23T12:41:30.415Z,10.70
2022-10-23T12:44:10.717Z,10.90
2022-10-23T12:46:50.159Z,11.50
2022-10-23T12:49:23.964Z,12.50
2022-10-23T12:52:08.475Z,13.50
2022-10-23T12:54:40.697Z,14.30
2022-10-23T12:57:28.753Z,14.70
2022-10-23T13:00:08.539Z,14.90
2022-10-23T13:02:39.818Z,15.10
2022-10-23T13:05:25.724Z,15.30
2022-10-23T13:08:00.449Z,15.50
2022-10-23T13:10:31.128Z,15.60
2022-10-23T13:13:17.644Z,15.80
2022-10-23T13:15:46.174Z,15.80
2022-10-23T13:18:16.107Z,15.80
2022-10-23T13:23:35.318Z,15.60
2022-10-23T13:26:28.084Z,15.50
2022-10-23T13:29:09.768Z,15.50
2022-10-23T13:31:47.104Z,15.60
2022-10-23T13:34:23.036Z,15.70
2022-10-23T13:37:23.383Z,15.80
2022-10-23T13:40:11.634Z,15.80
2022-10-23T13:42:40.485Z,15.80
2022-10-23T13:45:22.234Z,15.90
2022-10-23T13:47:59.054Z,16.10
2022-10-23T13:50:28.659Z,16.20
2022-10-23T13:52:59.335Z,16.20
2022-10-23T13:55:29.584Z,16.20
2022-10-23T13:57:58.014Z,16.30
2022-10-23T14:00:28.235Z,16.40
2022-10-23T14:02:58.497Z,16.60
2022-10-23T14:08:11.774Z,16.70
2022-10-23T14:10:40.124Z,16.70
2022-10-23T14:13:10.515Z,16.70
2022-10-23T14:15:39.427Z,16.80
2022-10-23T14:18:08.508Z,16.80
2022-10-23T14:20:44.379Z,16.80
2022-10-23T14:23:11.759Z,16.80
2022-10-23T14:25:47.144Z,16.80
2022-10-23T14:28:17.190Z,16.80
2022-10-23T14:30:47.119Z,16.80
2022-10-23T14:33:15.753Z,16.80
2022-10-23T14:35:44.113Z,16.80
2022-10-23T14:38:12.439Z,16.70
2022-10-23T14:40:42.260Z,16.60
2022-10-23T14:43:10.449Z,16.60
2022-10-23T14:45:39.067Z,16.50
2022-10-23T14:48:10.044Z,16.60
2022-10-23T14:50:44.980Z,16.50
2022-10-23T14:53:15.345Z,16.50
2022-10-23T14:55:54.164Z,16.30
2022-10-23T14:58:24.546Z,16.30
2022-10-23T15:01:04.286Z,16.30
2022-10-23T15:03:32.790Z,16.20
2022-10-23T15:06:02.265Z,16.20
2022-10-23T15:08:32.905Z,16.20
2022-10-23T15:11:04.859Z,16.10
2022-10-23T15:13:45.473Z,16.10
2022-10-23T15:16:22.319Z,16.10
2022-10-23T15:18:53.214Z,16.10
2022-10-23T15:21:22.925Z,16.00
2022-10-23T15:24:00.947Z,15.90
2022-10-23T15:26:38.291Z,15.90
2022-10-23T15:29:15.307Z,15.80
2022-10-23T15:31:47.055Z,15.70
2022-10-23T15:34:21.494Z,15.70
2022-10-23T15:36:51.164Z,15.60
2022-10-23T15:39:25.899Z,15.60
2022-10-23T15:42:06.886Z,15.60
2022-10-23T15:44:35.209Z,15.50
2022-10-23T15:47:04.459Z,15.40
2022-10-23T15:49:46.605Z,15.40
2022-10-23T15:52:16.001Z,15.30
2022-10-23T15:54:44.450Z,15.20
2022-10-23T15:57:20.630Z,15.20
2022-10-23T15:59:48.751Z,15.10
2022-10-23T16:02:16.312Z,15.10
2022-10-23T16:04:44.584Z,15.10
2022-10-23T16:07:21.410Z,15.10
2022-10-23T16:09:48.399Z,15.00
2022-10-23T16:12:17.310Z,15.00
2022-10-23T16:14:53.629Z,15.00
2022-10-23T16:17:29.232Z,15.00
2022-10-23T16:19:56.300Z,15.00
2022-10-23T16:22:26.724Z,15.00
2022-10-23T16:24:55.584Z,14.90
2022-10-23T16:27:24.484Z,14.80
2022-10-23T16:29:55.029Z,14.60
2022-10-23T16:32:24.166Z,14.50
2022-10-23T16:34:53.944Z,14.50
2022-10-23T16:37:23.849Z,14.50
2022-10-23T16:39:52.644Z,14.60
2022-10-23T16:42:21.302Z,14.50
2022-10-23T16:44:52.019Z,14.40
2022-10-23T16:47:21.055Z,14.30
2022-10-23T16:49:49.516Z,14.20
2022-10-23T16:52:20.539Z,14.10
2022-10-23T16:54:50.784Z,14.10
2022-10-23T16:57:26.619Z,14.00
2022-10-23T16:59:57.948Z,14.00
2022-10-23T17:02:27.422Z,14.00
2022-10-23T17:07:58.049Z,14.00
2022-10-23T17:10:25.042Z,13.90
2022-10-23T17:12:54.434Z,14.00
2022-10-23T17:15:23.781Z,13.90
2022-10-23T17:17:52.119Z,13.90
2022-10-23T17:20:20.621Z,13.90
2022-10-23T17:22:48.036Z,13.90
2022-10-23T17:25:16.581Z,13.90
2022-10-23T17:27:49.513Z,13.80
2022-10-23T17:30:24.540Z,13.80
2022-10-23T17:32:58.212Z,13.70
2022-10-23T17:35:29.228Z,13.70
2022-10-23T17:38:05.215Z,13.70
2022-10-23T17:40:33.141Z,13.80
2022-10-23T17:43:04.373Z,13.80
2022-10-23T17:45:37.333Z,13.80
2022-10-23T17:48:33.106Z,13.70
2022-10-23T17:51:15.619Z,13.50
2022-10-23T17:53:55.691Z,13.50
2022-10-23T17:56:41.206Z,13.50
2022-10-23T17:59:13.214Z,13.50
2022-10-23T18:01:44.569Z,13.50
2022-10-23T18:04:15.909Z,13.50
2022-10-23T18:06:49.953Z,13.60
2022-10-23T18:09:26.983Z,13.50
2022-10-23T18:11:55.243Z,13.50
2022-10-23T18:14:28.517Z,13.50
2022-10-23T18:16:59.164Z,13.50
2022-10-23T18:19:36.445Z,13.50
2022-10-23T18:22:09.843Z,13.50
2022-10-23T18:24:38.379Z,13.50
2022-10-23T18:27:09.263Z,13.50
2022-10-23T18:29:38.413Z,13.40
2022-10-23T18:32:06.957Z,13.30
2022-10-23T18:34:37.354Z,13.20
2022-10-23T18:37:07.789Z,13.20
2022-10-23T18:39:36.150Z,13.10
2022-10-23T18:42:09.289Z,13.20
2022-10-23T18:44:37.434Z,13.10
2022-10-23T18:47:05.653Z,13.10
2022-10-23T18:49:42.633Z,13.10
2022-10-23T18:52:13.699Z,13.00
2022-10-23T18:54:43.389Z,13.00
2022-10-23T18:57:14.484Z,12.90
2022-10-23T18:59:42.794Z,12.90
2022-10-23T19:02:12.351Z,12.80
2022-10-23T19:04:39.696Z,12.80
2022-10-23T19:07:09.808Z,12.70
2022-10-23T19:09:41.415Z,12.70
2022-10-23T19:12:10.817Z,12.60
2022-10-23T19:14:40.574Z,12.60
2022-10-23T19:17:18.084Z,12.60
2022-10-23T19:19:54.998Z,12.50
2022-10-23T19:22:24.540Z,12.50
2022-10-23T19:25:13.283Z,12.50
2022-10-23T19:27:50.835Z,12.50
2022-10-23T19:30:22.801Z,12.40
2022-10-23T19:32:51.924Z,12.50
2022-10-23T19:35:23.404Z,12.50
2022-10-23T19:37:59.383Z,12.50
2022-10-23T19:40:27.794Z,12.50
2022-10-23T19:42:56.109Z,12.50
2022-10-23T19:48:07.624Z,12.50
2022-10-23T19:50:43.310Z,12.50
2022-10-23T19:53:12.681Z,12.50
2022-10-23T19:56:01.219Z,12.50
2022-10-23T19:58:29.874Z,12.50
2022-10-23T20:01:08.552Z,12.50
2022-10-23T20:03:46.174Z,12.50
2022-10-23T20:06:37.513Z,12.50
2022-10-23T20:09:09.912Z,12.50
2022-10-23T20:11:39.644Z,12.50
2022-10-23T20:14:08.264Z,12.40
2022-10-23T20:16:42.673Z,12.40
2022-10-23T20:19:15.093Z,12.50
2022-10-23T20:21:46.764Z,12.40
2022-10-23T20:24:16.354Z,12.40
2022-10-23T20:26:47.356Z,12.40
2022-10-23T20:29:18.084Z,12.40
2022-10-23T20:31:51.885Z,12.30
2022-10-23T20:34:21.595Z,12.30
2022-10-23T20:36:50.475Z,12.20
2022-10-23T20:39:24.374Z,12.30
2022-10-23T20:41:58.561Z,12.20
2022-10-23T20:44:35.939Z,12.20
2022-10-23T20:47:04.499Z,12.20
2022-10-23T20:49:34.834Z,12.20
2022-10-23T20:52:03.232Z,12.20
2022-10-23T20:54:32.924Z,12.20
2022-10-23T20:57:01.134Z,12.20
2022-10-23T20:59:29.565Z,12.30
2022-10-23T21:02:01.733Z,12.20
2022-10-23T21:04:32.060Z,12.20
2022-10-23T21:07:10.041Z,12.20
2022-10-23T21:09:44.309Z,12.20
2022-10-23T21:12:11.299Z,12.20
2022-10-23T21:14:41.572Z,12.20
2022-10-23T21:17:13.094Z,12.20
2022-10-23T21:19:48.693Z,12.10
2022-10-23T21:22:18.822Z,12.10
2022-10-23T21:24:48.265Z,12.20
2022-10-23T21:27:18.529Z,12.20
2022-10-23T21:29:58.039Z,12.20
2022-10-23T21:32:45.599Z,11.40
2022-10-23T21:35:15.785Z,9.50
2022-10-23T21:37:51.845Z,7.90
2022-10-23T21:40:18.995Z,6.80
2022-10-23T21:42:57.159Z,6.20
2022-10-23T21:45:27.589Z,5.90
2022-10-23T21:47:57.594Z,5.70
2022-10-23T21:50:28.599Z,5.60
2022-10-23T21:53:07.540Z,5.70
2022-10-23T21:55:37.914Z,5.60
2022-10-23T21:58:07.355Z,5.60
2022-10-23T22:00:35.594Z,5.60
2022-10-23T22:03:06.039Z,5.70
2022-10-23T22:05:36.579Z,5.80
2022-10-23T22:08:14.160Z,6.20
2022-10-23T22:10:42.144Z,7.00
2022-10-23T22:13:10.246Z,8.00
2022-10-23T22:15:38.789Z,8.70
2022-10-23T22:18:08.415Z,9.30
2022-10-23T22:20:36.794Z,9.60
2022-10-23T22:23:03.744Z,9.80
2022-10-23T22:25:36.559Z,9.80
2022-10-23T22:28:06.459Z,10.00
2022-10-23T22:30:40.286Z,10.00
2022-10-23T22:33:08.719Z,10.30
2022-10-23T22:35:39.580Z,10.40
2022-10-23T22:38:06.570Z,10.60
2022-10-23T22:40:40.090Z,10.70
2022-10-23T22:43:15.309Z,10.80
2022-10-23T22:45:42.779Z,10.90
2022-10-23T22:48:11.034Z,10.90
2022-10-23T22:50:41.145Z,11.00
2022-10-23T22:53:10.851Z,11.00
2022-10-23T22:55:45.479Z,11.00
2022-10-23T22:58:14.745Z,11.10
2022-10-23T23:00:43.641Z,11.10
2022-10-23T23:03:13.323Z,11.10
2022-10-23T23:05:50.200Z,11.10
2022-10-23T23:08:19.002Z,11.10
2022-10-23T23:10:55.015Z,11.10
2022-10-23T23:13:25.939Z,11.10
2022-10-23T23:16:06.084Z,11.10
2022-10-23T23:18:36.085Z,11.10
2022-10-23T23:21:10.904Z,11.10
2022-10-23T23:23:40.365Z,11.30
2022-10-23T23:26:09.104Z,11.40
2022-10-23T23:29:00.019Z,11.40
2022-10-23T23:31:37.134Z,11.50
2022-10-23T23:34:12.961Z,11.50
2022-10-23T23:36:43.894Z,11.60
2022-10-23T23:39:12.115Z,11.70
2022-10-23T23:41:40.391Z,11.70
2022-10-23T23:44:10.284Z,11.70
2022-10-23T23:46:40.044Z,11.70
2022-10-23T23:49:07.305Z,11.70
2022-10-23T23:51:39.045Z,11.80
2022-10-23T23:54:16.594Z,11.80
2022-10-23T23:56:45.023Z,11.90
2022-10-23T23:59:15.348Z,11.90
